Time;durP1;ratioP1;P1;durP2;ratioP2;P2;SDS_P1;SDS_P2;PMS_P1;PMS_P2;Temp;Humidity;BMP_temperature;BMP_pressure;BME280_temperature;BME280_humidity;BME280_pressure;Samples;Min_cycle;Max_cycle;Signal;HPM_P1;HPM_P2
2023/07/17 00:02:27;;;;;;;1999.90;999.90;;;18.00;99.90;;;;;;5055916;28;20488;-76
2023/07/17 00:04:54;;;;;;;1999.90;999.90;;;18.00;99.90;;;;;;5058046;28;20481;-73
2023/07/17 00:07:21;;;;;;;1999.90;999.90;;;18.10;99.90;;;;;;5050084;28;20528;-73
2023/07/17 00:09:47;;;;;;;1999.90;999.90;;;18.10;99.90;;;;;;5058724;28;20435;-73
2023/07/17 00:12:14;;;;;;;1999.90;999.90;;;18.20;99.90;;;;;;5047751;28;20917;-73
2023/07/17 00:14:41;;;;;;;1999.90;999.90;;;18.20;99.90;;;;;;5056974;28;20759;-72
2023/07/17 00:17:08;;;;;;;1999.90;999.90;;;18.20;99.90;;;;;;5049626;28;20434;-72
2023/07/17 00:19:39;;;;;;;1999.90;999.90;;;18.40;99.90;;;;;;5055552;28;20487;-74
2023/07/17 00:22:06;;;;;;;1999.90;999.90;;;18.40;99.90;;;;;;5058874;28;20518;-74
2023/07/17 00:24:33;;;;;;;1999.90;999.90;;;18.50;99.90;;;;;;5060128;28;20509;-73
2023/07/17 00:27:01;;;;;;;1999.90;999.90;;;18.50;99.90;;;;;;5053833;28;20437;-75
2023/07/17 00:29:29;;;;;;;1999.90;999.90;;;18.60;99.90;;;;;;5055355;28;20427;-73
2023/07/17 00:31:56;;;;;;;1999.90;999.90;;;18.60;99.90;;;;;;5051671;28;20539;-73
2023/07/17 00:34:23;;;;;;;1999.90;999.90;;;18.60;99.90;;;;;;5067315;28;20555;-73
2023/07/17 00:36:51;;;;;;;1999.90;999.90;;;18.60;99.90;;;;;;5053186;28;20910;-73
2023/07/17 00:39:19;;;;;;;1999.90;999.90;;;18.70;99.90;;;;;;5059414;28;20444;-74
2023/07/17 00:41:46;;;;;;;1999.90;999.90;;;18.70;99.90;;;;;;5063336;28;20515;-73
2023/07/17 00:44:13;;;;;;;1999.90;999.90;;;18.80;99.90;;;;;;5055788;28;20436;-73
2023/07/17 00:46:40;;;;;;;1999.90;999.90;;;18.80;99.90;;;;;;5057986;28;20514;-75
2023/07/17 00:49:08;;;;;;;1999.90;999.90;;;18.90;99.90;;;;;;5056018;28;20429;-73
2023/07/17 00:51:36;;;;;;;1999.90;999.90;;;19.00;99.90;;;;;;5056684;28;20435;-73
2023/07/17 00:54:04;;;;;;;1999.90;999.90;;;19.00;99.90;;;;;;5054742;28;20945;-74
2023/07/17 00:56:31;;;;;;;1999.90;999.90;;;18.80;99.90;;;;;;5057105;28;20433;-73
2023/07/17 00:58:59;;;;;;;1999.90;999.90;;;18.80;99.90;;;;;;5053086;28;20447;-71
2023/07/17 01:01:27;;;;;;;1999.90;999.90;;;18.70;99.90;;;;;;5057452;28;20431;-73
2023/07/17 01:03:55;;;;;;;1999.90;999.90;;;18.50;99.90;;;;;;5061752;28;20435;-71
2023/07/17 01:06:22;;;;;;;1999.90;999.90;;;18.30;99.90;;;;;;5052410;28;20433;-69
2023/07/17 01:08:49;;;;;;;1999.90;999.90;;;18.10;99.90;;;;;;5051065;28;20437;-74
2023/07/17 01:11:17;;;;;;;1999.90;999.90;;;18.20;99.90;;;;;;5056540;28;20429;-73
2023/07/17 01:13:45;;;;;;;1999.90;999.90;;;17.90;99.90;;;;;;5054054;28;20435;-73
2023/07/17 01:16:12;;;;;;;1999.90;999.90;;;17.90;99.90;;;;;;5056531;28;20495;-73
2023/07/17 01:18:39;;;;;;;1999.90;999.90;;;18.00;99.90;;;;;;5069030;28;20855;-73
2023/07/17 01:21:08;;;;;;;1999.90;999.90;;;18.00;99.90;;;;;;5053780;28;20440;-71
2023/07/17 01:23:36;;;;;;;1999.90;999.90;;;18.00;99.90;;;;;;5056063;28;20428;-72
2023/07/17 01:26:11;;;;;;;1999.90;999.90;;;18.20;99.90;;;;;;5054663;28;20469;-71
2023/07/17 01:28:38;;;;;;;1999.90;999.90;;;18.50;99.90;;;;;;5045998;28;20433;-72
2023/07/17 01:31:05;;;;;;;1999.90;999.90;;;18.60;99.90;;;;;;5051318;28;20436;-73
2023/07/17 01:33:32;;;;;;;1999.90;999.90;;;18.70;99.80;;;;;;5050570;28;20439;-73
2023/07/17 01:35:59;;;;;;;1999.90;999.90;;;18.80;99.30;;;;;;5050246;28;20437;-73
2023/07/17 01:38:26;;;;;;;1999.90;999.90;;;18.90;99.10;;;;;;5052849;28;20920;-73
2023/07/17 01:40:54;;;;;;;1999.90;999.90;;;18.90;99.90;;;;;;5067415;28;20856;-74
2023/07/17 01:43:21;;;;;;;1999.90;999.90;;;19.00;99.50;;;;;;5050227;28;20429;-74
2023/07/17 01:45:48;;;;;;;1999.90;999.90;;;19.10;99.00;;;;;;5052723;28;20434;-73
2023/07/17 01:48:17;;;;;;;1999.90;999.90;;;19.00;98.90;;;;;;5052568;28;20437;-73
2023/07/17 01:50:43;;;;;;;1999.90;999.90;;;18.90;99.70;;;;;;5050659;28;20437;-71
2023/07/17 01:53:10;;;;;;;1999.90;999.90;;;18.80;99.70;;;;;;5065896;28;20489;-71
2023/07/17 01:55:37;;;;;;;1999.90;999.90;;;18.80;99.90;;;;;;5052553;28;20430;-73
2023/07/17 01:58:05;;;;;;;1999.90;999.90;;;18.80;99.90;;;;;;5056121;28;21214;-71
2023/07/17 02:00:32;;;;;;;1999.90;999.90;;;18.90;99.70;;;;;;5055054;28;20438;-71
2023/07/17 02:02:58;;;;;;;1999.90;999.90;;;19.10;99.40;;;;;;5051407;28;20441;-73
2023/07/17 02:05:25;;;;;;;1999.90;999.90;;;19.10;99.20;;;;;;5050373;28;20433;-70
2023/07/17 02:07:52;;;;;;;1999.90;999.90;;;19.20;98.70;;;;;;5054514;28;20425;-73
2023/07/17 02:10:19;;;;;;;1999.90;999.90;;;19.10;98.50;;;;;;5057862;28;20433;-71
2023/07/17 02:12:46;;;;;;;1999.90;999.90;;;19.20;98.40;;;;;;5055596;28;20490;-73
2023/07/17 02:15:14;;;;;;;1999.90;999.90;;;19.40;98.00;;;;;;5054420;28;20528;-73
2023/07/17 02:17:41;;;;;;;1999.90;999.90;;;19.40;97.90;;;;;;5052311;28;20444;-73
2023/07/17 02:20:11;;;;;;;1999.90;999.90;;;19.40;97.80;;;;;;5055963;28;20471;-73
2023/07/17 02:22:37;;;;;;;1999.90;999.90;;;19.50;97.70;;;;;;5054120;28;20467;-75
2023/07/17 02:25:06;;;;;;;1999.90;999.90;;;19.50;97.60;;;;;;5054527;28;20775;-71
2023/07/17 02:27:33;;;;;;;1999.90;999.90;;;19.40;97.60;;;;;;5049288;28;20950;-73
2023/07/17 02:29:59;;;;;;;1999.90;999.90;;;19.50;97.60;;;;;;5051009;28;20523;-73
2023/07/17 02:32:29;;;;;;;1999.90;999.90;;;19.60;97.70;;;;;;5051624;28;20437;-74
2023/07/17 02:34:55;;;;;;;1999.90;999.90;;;19.60;97.60;;;;;;5056312;28;20431;-73
2023/07/17 02:37:22;;;;;;;1999.90;999.90;;;19.50;97.80;;;;;;5065044;28;21080;-75
2023/07/17 02:39:49;;;;;;;1999.90;999.90;;;19.60;98.00;;;;;;5056644;28;20452;-71
2023/07/17 02:42:16;;;;;;;1999.90;999.90;;;19.50;98.00;;;;;;5054662;28;20459;-73
2023/07/17 02:44:43;;;;;;;1999.90;999.90;;;19.50;97.80;;;;;;5054138;28;20433;-73
2023/07/17 02:47:10;;;;;;;1999.90;999.90;;;19.40;97.90;;;;;;5053479;28;20427;-71
2023/07/17 02:49:38;;;;;;;1999.90;999.90;;;19.70;98.00;;;;;;5064827;28;20520;-72
2023/07/17 02:52:06;;;;;;;1999.90;999.90;;;19.20;97.90;;;;;;5051732;28;20488;-74
2023/07/17 02:54:33;;;;;;;1999.90;999.90;;;19.10;98.20;;;;;;5054911;28;20431;-72
2023/07/17 02:56:59;;;;;;;1999.90;999.90;;;19.00;98.30;;;;;;5046779;28;20495;-74
2023/07/17 02:59:26;;;;;;;1999.90;999.90;;;18.90;98.40;;;;;;5046712;28;20491;-73
2023/07/17 03:01:53;;;;;;;1999.90;999.90;;;18.80;98.70;;;;;;5049132;28;20487;-71
2023/07/17 03:04:19;;;;;;;1999.90;999.90;;;18.70;99.00;;;;;;5051905;28;20478;-70
2023/07/17 03:06:49;;;;;;;1999.90;999.90;;;18.70;99.20;;;;;;5059651;28;20431;-74
2023/07/17 03:09:16;;;;;;;1999.90;999.90;;;18.70;98.90;;;;;;5051895;28;20429;-73
2023/07/17 03:11:42;;;;;;;1999.90;999.90;;;18.70;98.80;;;;;;5045930;28;20973;-73
2023/07/17 03:14:09;;;;;;;1999.90;999.90;;;18.50;99.30;;;;;;5050399;28;20433;-73
2023/07/17 03:16:36;;;;;;;1999.90;999.90;;;18.70;99.70;;;;;;5046373;28;20509;-71
2023/07/17 03:19:03;;;;;;;1999.90;999.90;;;18.60;99.70;;;;;;5050222;28;20436;-73
2023/07/17 03:21:29;;;;;;;1999.90;999.90;;;18.60;99.70;;;;;;5048010;28;20474;-72
2023/07/17 03:23:57;;;;;;;1999.90;999.90;;;18.70;99.80;;;;;;5048420;28;20436;-71
2023/07/17 03:26:24;;;;;;;1999.90;999.90;;;18.70;99.70;;;;;;5051554;28;20433;-74
2023/07/17 03:28:51;;;;;;;1999.90;999.90;;;18.60;99.40;;;;;;5055076;28;20979;-74
2023/07/17 03:31:17;;;;;;;1999.90;999.90;;;18.50;99.20;;;;;;5047805;28;20839;-73
2023/07/17 03:33:44;;;;;;;1999.90;999.90;;;18.60;99.20;;;;;;5048938;28;20443;-74
2023/07/17 03:36:11;;;;;;;1999.90;999.90;;;18.60;98.90;;;;;;5049490;28;20443;-73
2023/07/17 03:38:37;;;;;;;1999.90;999.90;;;18.60;99.00;;;;;;5051689;28;20427;-75
2023/07/17 03:41:05;;;;;;;1999.90;999.90;;;18.50;99.80;;;;;;5060111;28;20427;-72
2023/07/17 03:43:32;;;;;;;1999.90;999.90;;;18.50;99.90;;;;;;5062218;28;20439;-73
2023/07/17 03:45:59;;;;;;;1999.90;999.90;;;18.60;99.60;;;;;;5055411;28;20926;-72
2023/07/17 03:48:25;;;;;;;1999.90;999.90;;;18.60;99.50;;;;;;5052747;28;20455;-74
2023/07/17 03:50:52;;;;;;;1999.90;999.90;;;18.70;99.60;;;;;;5058731;28;20435;-74
2023/07/17 03:53:19;;;;;;;1999.90;999.90;;;18.50;99.50;;;;;;5058281;28;20433;-70
2023/07/17 03:55:45;;;;;;;1999.90;999.90;;;18.50;99.60;;;;;;5061779;28;20462;-74
2023/07/17 03:58:13;;;;;;;1999.90;999.90;;;18.40;99.30;;;;;;5050937;28;20487;-73
2023/07/17 04:00:40;;;;;;;1999.90;999.90;;;18.40;99.40;;;;;;5048821;28;20986;-70
2023/07/17 04:03:07;;;;;;;1999.90;999.90;;;18.50;99.40;;;;;;5060377;28;20440;-73
2023/07/17 04:05:33;;;;;;;1999.90;999.90;;;18.60;99.60;;;;;;5055559;28;20485;-74
2023/07/17 04:08:01;;;;;;;1999.90;999.90;;;18.70;99.70;;;;;;5051995;28;20923;-71
2023/07/17 04:10:28;;;;;;;1999.90;999.90;;;18.90;99.90;;;;;;5054377;28;20429;-74
2023/07/17 04:12:55;;;;;;;1999.90;999.90;;;19.10;99.50;;;;;;5051720;28;20457;-73
2023/07/17 04:15:23;;;;;;;1999.90;999.90;;;19.10;99.80;;;;;;5055885;28;20432;-71
2023/07/17 04:17:50;;;;;;;1999.90;999.90;;;19.20;99.90;;;;;;5058989;28;20433;-73
2023/07/17 04:20:17;;;;;;;1999.90;999.90;;;19.10;99.70;;;;;;5058936;28;20428;-74
2023/07/17 04:22:43;;;;;;;1999.90;999.90;;;19.10;99.90;;;;;;5054186;28;21419;-71
2023/07/17 04:25:10;;;;;;;1999.90;999.90;;;19.10;99.90;;;;;;5054154;28;20511;-73
2023/07/17 04:27:37;;;;;;;1999.90;999.90;;;19.10;99.60;;;;;;5059370;28;20432;-76
2023/07/17 04:30:04;;;;;;;1999.90;999.90;;;19.10;99.90;;;;;;5058374;28;20971;-72
2023/07/17 04:32:33;;;;;;;1999.90;999.90;;;19.20;99.90;;;;;;5059214;28;20436;-74
2023/07/17 04:34:59;;;;;;;1999.90;999.90;;;19.20;99.90;;;;;;5051734;28;20441;-74
2023/07/17 04:37:26;;;;;;;1999.90;999.90;;;19.20;99.90;;;;;;5055649;28;20433;-71
2023/07/17 04:39:53;;;;;;;1999.90;999.90;;;19.20;99.90;;;;;;5057176;28;20424;-74
2023/07/17 04:42:19;;;;;;;1999.90;999.90;;;19.40;99.90;;;;;;5066319;28;20436;-75
2023/07/17 04:44:46;;;;;;;1999.90;999.90;;;19.70;99.90;;;;;;5058801;28;20460;-70
2023/07/17 04:47:13;;;;;;;1999.90;999.90;;;20.00;99.90;;;;;;5046846;28;20427;-74
2023/07/17 04:49:41;;;;;;;1999.90;999.90;;;20.30;99.90;;;;;;5051767;28;20508;-74
2023/07/17 04:52:08;;;;;;;1999.90;999.90;;;20.70;99.90;;;;;;5055403;28;20432;-71
2023/07/17 04:54:34;;;;;;;1999.90;999.90;;;21.10;99.10;;;;;;5060806;28;20433;-73
2023/07/17 04:57:01;;;;;;;1999.90;999.90;;;21.50;99.30;;;;;;5056454;28;20437;-74
2023/07/17 04:59:28;;;;;;;1999.90;999.90;;;21.70;98.60;;;;;;5055020;28;20437;-69
2023/07/17 05:01:54;;;;;;;1999.90;999.90;;;21.90;98.70;;;;;;5058041;28;20484;-74
2023/07/17 05:04:22;;;;;;;1999.90;999.90;;;22.00;96.80;;;;;;5054684;28;20436;-73
2023/07/17 05:06:50;;;;;;;1999.90;999.90;;;22.20;96.20;;;;;;5062634;28;20583;-69
2023/07/17 05:09:17;;;;;;;1999.90;999.90;;;22.10;95.80;;;;;;5050933;28;20429;-77
2023/07/17 05:11:45;;;;;;;1999.90;999.90;;;22.10;94.50;;;;;;5057704;28;20431;-70
2023/07/17 05:14:12;;;;;;;1999.90;999.90;;;22.00;94.20;;;;;;5055585;28;20450;-73
2023/07/17 05:16:39;;;;;;;1999.90;999.90;;;21.80;94.20;;;;;;5062730;28;20801;-72
2023/07/17 05:19:06;;;;;;;1999.90;999.90;;;21.70;94.20;;;;;;5050007;28;20433;-73
2023/07/17 05:21:33;;;;;;;1999.90;999.90;;;21.70;93.80;;;;;;5055383;28;20911;-72
2023/07/17 05:24:01;;;;;;;1999.90;999.90;;;21.80;93.70;;;;;;5048338;28;20507;-73
2023/07/17 05:26:28;;;;;;;1999.90;999.90;;;21.60;93.40;;;;;;5059809;28;20441;-73
2023/07/17 05:28:54;;;;;;;1999.90;999.90;;;21.70;93.90;;;;;;5097635;22;20902;-71
2023/07/17 05:31:21;;;;;;;1999.90;999.90;;;22.10;93.10;;;;;;5078072;28;20432;-76
2023/07/17 05:33:48;;;;;;;1999.90;999.90;;;22.30;92.90;;;;;;5091094;28;20514;-72
2023/07/17 05:36:15;;;;;;;1999.90;999.90;;;22.20;92.50;;;;;;5090750;28;20459;-71
2023/07/17 05:38:41;;;;;;;1999.90;999.90;;;22.50;92.70;;;;;;5093394;28;20426;-73
2023/07/17 05:41:09;;;;;;;1999.90;999.90;;;22.70;92.20;;;;;;5088804;28;20479;-73
2023/07/17 05:43:36;;;;;;;1999.90;999.90;;;22.90;91.70;;;;;;5089834;28;20490;-72
2023/07/17 05:46:03;;;;;;;1999.90;999.90;;;23.00;91.10;;;;;;5090073;28;20484;-73
2023/07/17 05:48:30;;;;;;;1999.90;999.90;;;23.00;91.60;;;;;;5090221;28;20929;-73
2023/07/17 05:50:56;;;;;;;1999.90;999.90;;;23.10;91.60;;;;;;5089504;28;20499;-72
2023/07/17 05:53:24;;;;;;;1999.90;999.90;;;22.90;91.10;;;;;;5081963;28;20427;-73
2023/07/17 05:55:52;;;;;;;1999.90;999.90;;;23.10;91.80;;;;;;5090372;28;20426;-72
2023/07/17 05:58:20;;;;;;;1999.90;999.90;;;23.30;91.30;;;;;;5085327;28;21832;-73
2023/07/17 06:00:46;;;;;;;1999.90;999.90;;;23.40;91.00;;;;;;5079270;28;20429;-73
2023/07/17 06:03:13;;;;;;;1999.90;999.90;;;23.20;90.90;;;;;;5077874;28;20911;-73
2023/07/17 06:05:40;;;;;;;1999.90;999.90;;;23.40;90.90;;;;;;5089622;28;20437;-73
2023/07/17 06:08:08;;;;;;;1999.90;999.90;;;23.60;90.60;;;;;;5089576;28;20520;-72
2023/07/17 06:10:35;;;;;;;1999.90;999.90;;;23.80;91.00;;;;;;5088838;28;20426;-73
2023/07/17 06:13:02;;;;;;;1999.90;999.90;;;24.10;90.70;;;;;;5085981;28;20483;-73
2023/07/17 06:15:30;;;;;;;1999.90;999.90;;;24.20;90.30;;;;;;5085650;28;20430;-73
2023/07/17 06:17:56;;;;;;;1999.90;999.90;;;24.20;90.00;;;;;;5087854;28;20949;-73
2023/07/17 06:20:23;;;;;;;1999.90;999.90;;;24.00;90.20;;;;;;5088899;28;20441;-74
2023/07/17 06:22:50;;;;;;;1999.90;999.90;;;24.00;90.20;;;;;;5088300;28;20498;-72
2023/07/17 06:25:17;;;;;;;1999.90;999.90;;;23.90;89.60;;;;;;5073894;28;20427;-73
2023/07/17 06:27:44;;;;;;;1999.90;999.90;;;23.60;90.00;;;;;;5070476;28;20412;-71
2023/07/17 06:30:11;;;;;;;1999.90;999.90;;;23.70;90.40;;;;;;5070812;28;20415;-73
2023/07/17 06:32:39;;;;;;;1999.90;999.90;;;23.80;90.30;;;;;;5072032;28;20446;-74
2023/07/17 06:35:07;;;;;;;1999.90;999.90;;;23.70;90.10;;;;;;5083362;28;20436;-74
2023/07/17 06:37:33;;;;;;;1999.90;999.90;;;23.60;90.30;;;;;;5078812;28;20423;-72
2023/07/17 06:40:00;;;;;;;1999.90;999.90;;;23.40;90.30;;;;;;5070526;28;20424;-73
2023/07/17 06:42:27;;;;;;;1999.90;999.90;;;23.80;90.60;;;;;;5070377;28;20885;-74
2023/07/17 06:44:53;;;;;;;1999.90;999.90;;;24.00;90.40;;;;;;5079545;28;20473;-72
2023/07/17 06:47:20;;;;;;;1999.90;999.90;;;24.10;90.40;;;;;;5086735;28;20439;-72
2023/07/17 06:49:48;;;;;;;1999.90;999.90;;;24.20;90.20;;;;;;5090802;28;20416;-72
2023/07/17 06:52:15;;;;;;;1999.90;999.90;;;24.20;89.30;;;;;;5090864;28;20413;-72
2023/07/17 06:54:41;;;;;;;1999.90;999.90;;;23.80;90.00;;;;;;5086074;28;20436;-73
2023/07/17 06:57:08;;;;;;;1999.90;999.90;;;24.10;89.90;;;;;;5084772;28;20906;-71
2023/07/17 06:59:35;;;;;;;1999.90;999.90;;;24.50;89.00;;;;;;5090717;28;20417;-70
2023/07/17 07:02:02;;;;;;;1999.90;999.90;;;25.10;88.40;;;;;;5090840;28;20414;-72
2023/07/17 07:04:29;;;;;;;1999.90;999.90;;;25.10;87.50;;;;;;5081307;28;20453;-72
2023/07/17 07:06:57;;;;;;;1999.90;999.90;;;24.70;87.60;;;;;;5090590;28;20414;-72
2023/07/17 07:09:23;;;;;;;1999.90;999.90;;;24.90;87.70;;;;;;5090287;28;20753;-73
2023/07/17 07:11:50;;;;;;;1999.90;999.90;;;24.90;88.10;;;;;;5087630;28;20527;-75
2023/07/17 07:14:17;;;;;;;1999.90;999.90;;;25.00;87.50;;;;;;5086043;28;20438;-72
2023/07/17 07:16:43;;;;;;;1999.90;999.90;;;25.20;86.50;;;;;;5082804;28;20429;-72
2023/07/17 07:19:10;;;;;;;1999.90;999.90;;;24.80;87.00;;;;;;5079514;28;20438;-71
2023/07/17 07:21:37;;;;;;;1999.90;999.90;;;24.90;87.70;;;;;;5085433;28;20461;-73
2023/07/17 07:24:05;;;;;;;1999.90;999.90;;;24.70;87.50;;;;;;5084080;28;20927;-73
2023/07/17 07:26:32;;;;;;;1999.90;999.90;;;24.90;89.30;;;;;;5087757;28;20515;-72
2023/07/17 07:28:59;;;;;;;1999.90;999.90;;;24.70;88.00;;;;;;5082072;28;20789;-75
2023/07/17 07:31:26;;;;;;;1999.90;999.90;;;24.90;88.40;;;;;;5085972;28;20435;-73
2023/07/17 07:33:52;;;;;;;1999.90;999.90;;;25.10;87.90;;;;;;5082032;28;21148;-73
2023/07/17 07:36:19;;;;;;;1999.90;999.90;;;25.40;87.40;;;;;;5084139;28;20430;-71
2023/07/17 07:38:46;;;;;;;1999.90;999.90;;;25.60;86.40;;;;;;5087545;28;20452;-73
2023/07/17 07:41:14;;;;;;;1999.90;999.90;;;25.60;87.00;;;;;;5087544;28;20471;-73
2023/07/17 07:43:41;;;;;;;1999.90;999.90;;;25.20;87.70;;;;;;5078485;28;20520;-73
2023/07/17 07:46:08;;;;;;;1999.90;999.90;;;25.10;88.60;;;;;;5083260;28;20429;-72
2023/07/17 07:48:34;;;;;;;1999.90;999.90;;;24.80;88.40;;;;;;5078723;28;20418;-71
2023/07/17 07:51:01;;;;;;;1999.90;999.90;;;24.70;89.10;;;;;;5078808;28;20434;-73
2023/07/17 07:53:28;;;;;;;1999.90;999.90;;;24.20;90.30;;;;;;5088383;28;20425;-72
2023/07/17 07:55:55;;;;;;;1999.90;999.90;;;23.70;91.20;;;;;;5087244;28;20440;-73
2023/07/17 07:58:23;;;;;;;1999.90;999.90;;;23.80;91.20;;;;;;5082692;28;20909;-73
2023/07/17 08:00:50;;;;;;;1999.90;999.90;;;23.80;91.30;;;;;;5086832;28;20437;-73
2023/07/17 08:03:16;;;;;;;1999.90;999.90;;;23.80;91.60;;;;;;5088376;28;20434;-72
2023/07/17 08:05:43;;;;;;;1999.90;999.90;;;24.10;91.10;;;;;;5086487;28;20433;-71
2023/07/17 08:08:10;;;;;;;1999.90;999.90;;;24.40;91.30;;;;;;5086242;28;20494;-72
2023/07/17 08:10:38;;;;;;;1999.90;999.90;;;23.90;91.90;;;;;;5086470;28;20784;-72
2023/07/17 08:13:05;;;;;;;1999.90;999.90;;;24.60;92.30;;;;;;5083555;28;20520;-72
2023/07/17 08:15:33;;;;;;;1999.90;999.90;;;25.20;91.70;;;;;;5086819;28;20430;-73
2023/07/17 08:18:00;;;;;;;1999.90;999.90;;;25.70;90.10;;;;;;5085067;28;20429;-73
2023/07/17 08:20:26;;;;;;;1999.90;999.90;;;26.00;90.00;;;;;;5087185;28;20453;-74
2023/07/17 08:22:55;;;;;;;1999.90;999.90;;;26.10;90.10;;;;;;5087582;28;20433;-73
2023/07/17 08:25:22;;;;;;;1999.90;999.90;;;26.20;89.60;;;;;;5086811;28;20430;-73
2023/07/17 08:27:49;;;;;;;1999.90;999.90;;;26.20;88.80;;;;;;5085176;28;20880;-73
2023/07/17 08:30:16;;;;;;;1999.90;999.90;;;26.10;87.90;;;;;;5089785;28;20490;-72
2023/07/17 08:32:44;;;;;;;1999.90;999.90;;;25.70;89.40;;;;;;5086608;28;20471;-73
2023/07/17 08:35:11;;;;;;;1999.90;999.90;;;25.90;90.00;;;;;;5084660;28;20899;-71
2023/07/17 08:37:37;;;;;;;1999.90;999.90;;;26.10;88.60;;;;;;5091047;28;20527;-73
2023/07/17 08:40:05;;;;;;;1999.90;999.90;;;26.30;88.90;;;;;;5091438;28;20441;-72
2023/07/17 08:42:34;;;;;;;1999.90;999.90;;;26.40;88.10;;;;;;5089324;28;20935;-73
2023/07/17 08:45:02;;;;;;;1999.90;999.90;;;26.50;87.40;;;;;;5079005;28;20970;-73
2023/07/17 08:47:30;;;;;;;1999.90;999.90;;;25.60;88.10;;;;;;5086068;28;20425;-72
2023/07/17 08:49:59;;;;;;;1999.90;999.90;;;25.50;89.30;;;;;;5089202;28;20496;-72
2023/07/17 08:52:28;;;;;;;1999.90;999.90;;;25.70;89.10;;;;;;5088139;28;20428;-72
2023/07/17 08:54:55;;;;;;;1999.90;999.90;;;25.90;89.80;;;;;;5085435;28;20837;-73
2023/07/17 08:57:23;;;;;;;1999.90;999.90;;;26.20;86.50;;;;;;5089645;28;20437;-70
2023/07/17 08:59:51;;;;;;;1999.90;999.90;;;25.90;85.20;;;;;;5089910;28;20430;-73
2023/07/17 09:02:20;;;;;;;1999.90;999.90;;;25.90;85.60;;;;;;5089344;28;20429;-72
2023/07/17 09:04:46;;;;;;;1999.90;999.90;;;25.60;87.70;;;;;;5088068;28;20491;-71
2023/07/17 09:07:15;;;;;;;1999.90;999.90;;;25.60;89.50;;;;;;5080476;28;20493;-74
2023/07/17 09:09:41;;;;;;;1999.90;999.90;;;25.80;86.80;;;;;;5090046;28;20441;-73
2023/07/17 09:12:09;;;;;;;1999.90;999.90;;;26.00;86.30;;;;;;5091043;28;20422;-73
2023/07/17 09:14:36;;;;;;;1999.90;999.90;;;25.60;86.30;;;;;;5088583;28;20803;-73
2023/07/17 09:17:04;;;;;;;1999.90;999.90;;;25.40;86.00;;;;;;5083483;28;20964;-72
2023/07/17 09:19:31;;;;;;;1999.90;999.90;;;25.00;87.50;;;;;;5085266;28;20934;-73
2023/07/17 09:22:02;;;;;;;1999.90;999.90;;;24.90;88.70;;;;;;5085225;28;20505;-71
2023/07/17 09:24:33;;;;;;;1999.90;999.90;;;25.10;89.40;;;;;;5076901;28;20435;-72
2023/07/17 09:27:00;;;;;;;1999.90;999.90;;;25.50;87.80;;;;;;5075275;28;20483;-73
2023/07/17 09:29:27;;;;;;;1999.90;999.90;;;25.60;86.10;;;;;;5087057;28;21275;-73
2023/07/17 09:31:54;;;;;;;1999.90;999.90;;;25.70;86.90;;;;;;5088178;28;20911;-71
2023/07/17 09:34:21;;;;;;;1999.90;999.90;;;25.80;85.50;;;;;;5084667;28;20436;-73
2023/07/17 09:36:51;;;;;;;1999.90;999.90;;;26.00;85.70;;;;;;5088025;28;20430;-73
2023/07/17 09:39:18;;;;;;;1999.90;999.90;;;26.10;84.80;;;;;;5087674;28;20864;-73
2023/07/17 09:41:46;;;;;;;1999.90;999.90;;;25.60;86.50;;;;;;5089599;28;20432;-72
2023/07/17 09:44:18;;;;;;;1999.90;999.90;;;25.90;85.70;;;;;;5090430;28;20432;-73
2023/07/17 09:46:45;;;;;;;1999.90;999.90;;;25.90;83.50;;;;;;5090366;28;20521;-73
2023/07/17 09:49:13;;;;;;;1999.90;999.90;;;26.10;83.10;;;;;;5090145;28;20433;-73
2023/07/17 09:51:40;;;;;;;1999.90;999.90;;;26.30;82.30;;;;;;5080117;28;20424;-72
2023/07/17 09:54:07;;;;;;;1999.90;999.90;;;26.40;81.00;;;;;;5089500;28;20460;-72
2023/07/17 09:56:34;;;;;;;1999.90;999.90;;;26.20;80.10;;;;;;5088579;28;20475;-73
2023/07/17 09:59:12;;;;;;;1999.90;999.90;;;26.60;81.30;;;;;;5088559;28;20479;-74
2023/07/17 10:01:43;;;;;;;1999.90;999.90;;;26.10;81.40;;;;;;5083067;28;20509;-73
2023/07/17 10:04:11;;;;;;;1999.90;999.90;;;26.20;84.00;;;;;;5089558;28;20441;-73
2023/07/17 10:06:42;;;;;;;1999.90;999.90;;;26.20;81.70;;;;;;5082135;28;20434;-73
2023/07/17 10:09:12;;;;;;;1999.90;999.90;;;26.10;81.80;;;;;;5082565;28;20408;-73
2023/07/17 10:11:39;;;;;;;1999.90;999.90;;;25.90;83.20;;;;;;5088078;28;20426;-73
2023/07/17 10:14:07;;;;;;;1999.90;999.90;;;25.90;81.30;;;;;;5086749;28;20437;-72
2023/07/17 10:16:34;;;;;;;1999.90;999.90;;;26.30;82.90;;;;;;5088417;28;20922;-69
2023/07/17 10:19:01;;;;;;;1999.90;999.90;;;26.60;82.50;;;;;;5070091;28;20465;-73
2023/07/17 10:21:28;;;;;;;1999.90;999.90;;;27.10;82.50;;;;;;5081100;28;20516;-73
2023/07/17 10:24:02;;;;;;;1999.90;999.90;;;27.70;80.80;;;;;;5088653;28;20470;-69
2023/07/17 10:26:30;;;;;;;1999.90;999.90;;;27.60;79.30;;;;;;5088972;28;20605;-73
2023/07/17 10:29:00;;;;;;;1999.90;999.90;;;27.40;79.00;;;;;;5088329;28;20421;-69
2023/07/17 10:31:32;;;;;;;1999.90;999.90;;;27.20;78.20;;;;;;5086839;28;20418;-72
2023/07/17 10:34:01;;;;;;;1999.90;999.90;;;26.50;78.20;;;;;;5088792;28;20824;-72
2023/07/17 10:36:39;;;;;;;1999.90;999.90;;;26.70;79.00;;;;;;5088037;28;20467;-73
2023/07/17 10:39:07;;;;;;;1999.90;999.90;;;26.90;76.40;;;;;;5088003;28;20806;-71
2023/07/17 10:41:36;;;;;;;1999.90;999.90;;;26.20;77.10;;;;;;5087228;28;20429;-70
2023/07/17 10:44:06;;;;;;;1999.90;999.90;;;25.70;78.50;;;;;;5085479;28;20921;-73
2023/07/17 10:46:36;;;;;;;1999.90;999.90;;;25.80;80.20;;;;;;5085353;28;20437;-73
2023/07/17 10:49:08;;;;;;;1999.90;999.90;;;26.40;81.10;;;;;;5088205;28;20434;-75
2023/07/17 10:51:35;;;;;;;1999.90;999.90;;;26.20;78.70;;;;;;5086395;28;20923;-71
2023/07/17 10:54:02;;;;;;;1999.90;999.90;;;26.50;77.60;;;;;;5084712;28;20433;-73
2023/07/17 10:56:29;;;;;;;1999.90;999.90;;;26.50;76.90;;;;;;5088173;28;20441;-70
2023/07/17 10:58:57;;;;;;;1999.90;999.90;;;26.30;76.80;;;;;;5088873;28;20487;-73
2023/07/17 11:01:24;;;;;;;1999.90;999.90;;;26.30;76.90;;;;;;5086441;28;20726;-73
2023/07/17 11:03:53;;;;;;;1999.90;999.90;;;26.10;77.00;;;;;;5089198;28;20491;-72
2023/07/17 11:06:24;;;;;;;1999.90;999.90;;;26.60;76.20;;;;;;5088759;28;20439;-73
2023/07/17 11:08:52;;;;;;;1999.90;999.90;;;25.80;77.70;;;;;;5088156;28;20426;-73
2023/07/17 11:11:19;;;;;;;1999.90;999.90;;;25.80;80.70;;;;;;5088526;28;20433;-73
2023/07/17 11:13:46;;;;;;;1999.90;999.90;;;26.20;81.10;;;;;;5073159;28;20435;-73
2023/07/17 11:16:13;;;;;;;1999.90;999.90;;;26.60;79.20;;;;;;5087417;28;20869;-71
2023/07/17 11:18:47;;;;;;;1999.90;999.90;;;27.20;77.00;;;;;;5088499;28;20487;-73
2023/07/17 11:21:16;;;;;;;1999.90;999.90;;;27.70;74.50;;;;;;5086786;28;20433;-73
2023/07/17 11:23:50;;;;;;;1999.90;999.90;;;27.90;74.10;;;;;;5086387;28;20452;-73
2023/07/17 11:26:19;;;;;;;1999.90;999.90;;;27.50;73.00;;;;;;5083540;28;20436;-72
2023/07/17 11:28:49;;;;;;;1999.90;999.90;;;27.00;72.00;;;;;;5086934;28;20487;-73
2023/07/17 11:31:20;;;;;;;1999.90;999.90;;;26.90;72.20;;;;;;5087337;28;21000;-73
2023/07/17 11:33:58;;;;;;;1999.90;999.90;;;26.80;73.10;;;;;;5085433;28;20430;-73
2023/07/17 11:36:26;;;;;;;1999.90;999.90;;;27.20;73.10;;;;;;5082067;28;20513;-73
2023/07/17 11:38:56;;;;;;;1999.90;999.90;;;27.50;73.30;;;;;;5088505;28;20852;-73
2023/07/17 11:41:25;;;;;;;1999.90;999.90;;;27.40;71.50;;;;;;5087455;28;20479;-73
2023/07/17 11:43:57;;;;;;;1999.90;999.90;;;26.60;72.30;;;;;;5087982;28;20432;-72
2023/07/17 11:46:24;;;;;;;1999.90;999.90;;;26.10;73.50;;;;;;5088220;28;21199;-72
2023/07/17 11:48:54;;;;;;;1999.90;999.90;;;26.00;76.10;;;;;;5084436;28;20920;-74
2023/07/17 11:51:26;;;;;;;1999.90;999.90;;;26.20;75.50;;;;;;5083108;28;20432;-73
2023/07/17 11:53:54;;;;;;;1999.90;999.90;;;26.60;74.40;;;;;;5073995;28;20514;-73
2023/07/17 11:56:21;;;;;;;1999.90;999.90;;;26.70;73.80;;;;;;5088081;28;20426;-72
2023/07/17 11:58:51;;;;;;;1999.90;999.90;;;26.60;72.60;;;;;;5087803;28;20425;-75
2023/07/17 12:01:18;;;;;;;1999.90;999.90;;;27.00;73.80;;;;;;5081728;28;20436;-73